Time;durP1;ratioP1;P1;durP2;ratioP2;P2;SDS_P1;SDS_P2;PMS_P1;PMS_P2;Temp;Humidity;BMP_temperature;BMP_pressure;BME280_temperature;BME280_humidity;BME280_pressure;Samples;Min_cycle;Max_cycle;Signal;HPM_P1;HPM_P2
2023/05/04 00:00:35;;;;;;;;;;;14.90;99.90;;;;;;4803200;29;19983;-79
2023/05/04 00:03:02;;;;;;;;;;;14.90;99.90;;;;;;4828169;29;19928;-79
2023/05/04 00:05:32;;;;;;;;;;;14.90;99.90;;;;;;4813792;29;20393;-79
2023/05/04 00:07:58;;;;;;;;;;;14.90;99.90;;;;;;4828261;29;20411;-79
2023/05/04 00:10:26;;;;;;;;;;;14.90;99.90;;;;;;4825647;29;19975;-79
2023/05/04 00:12:53;;;;;;;;;;;14.90;99.90;;;;;;4811966;29;20486;-79
2023/05/04 00:15:20;;;;;;;;;;;14.90;99.90;;;;;;4802377;29;19936;-79
2023/05/04 00:17:48;;;;;;;;;;;14.90;99.90;;;;;;4799586;29;20454;-79
2023/05/04 00:20:17;;;;;;;;;;;14.90;99.90;;;;;;4823243;29;19943;-79
2023/05/04 00:22:44;;;;;;;;;;;15.00;99.90;;;;;;4812649;29;19937;-79
2023/05/04 00:25:15;;;;;;;;;;;14.80;99.90;;;;;;4822043;29;19979;-79
2023/05/04 00:27:42;;;;;;;;;;;14.90;99.90;;;;;;4821475;29;19951;-79
2023/05/04 00:30:12;;;;;;;;;;;14.80;99.90;;;;;;4824237;29;19962;-79
2023/05/04 00:32:42;;;;;;;;;;;14.80;99.90;;;;;;4830944;29;19987;-79
2023/05/04 00:35:09;;;;;;;;;;;14.80;99.90;;;;;;4838343;29;20018;-79
2023/05/04 00:37:36;;;;;;;;;;;14.80;99.90;;;;;;4816265;29;21136;-79
2023/05/04 00:40:03;;;;;;;;;;;14.80;99.90;;;;;;4809631;29;19936;-79
2023/05/04 00:42:31;;;;;;;;;;;14.70;99.90;;;;;;4840549;29;19986;-79
2023/05/04 00:44:58;;;;;;;;;;;14.70;99.90;;;;;;4828655;29;20684;-79
2023/05/04 00:47:25;;;;;;;;;;;14.60;99.90;;;;;;4822220;29;19936;-79
2023/05/04 00:49:52;;;;;;;;;;;14.60;99.90;;;;;;4838327;29;19935;-79
2023/05/04 00:52:19;;;;;;;;;;;14.60;99.90;;;;;;4828121;29;20026;-79
2023/05/04 00:54:50;;;;;;;;;;;14.50;99.90;;;;;;4843841;29;20455;-79
2023/05/04 00:57:18;;;;;;;;;;;15.30;99.90;;;;;;4830406;29;20064;-79
2023/05/04 00:59:46;;;;;;;;;;;14.50;99.90;;;;;;4815867;29;21462;-79
2023/05/04 01:02:13;;;;;;;;;;;14.40;99.90;;;;;;4824465;29;19963;-79
2023/05/04 01:04:40;;;;;;;;;;;14.40;99.90;;;;;;4844374;29;19927;-79
2023/05/04 01:07:26;;;;;;;;;;;14.40;99.90;;;;;;4826480;29;19936;-79
2023/05/04 01:09:58;;;;;;;;;;;14.40;99.90;;;;;;4837105;29;19936;-79
2023/05/04 01:12:33;;;;;;;;;;;14.30;99.90;;;;;;4836257;29;19947;-79
2023/05/04 01:15:01;;;;;;;;;;;14.30;99.90;;;;;;4835560;29;19935;-79
2023/05/04 01:17:29;;;;;;;;;;;14.30;99.90;;;;;;4829882;29;19936;-79
2023/05/04 01:19:56;;;;;;;;;;;14.30;99.90;;;;;;4837227;29;20687;-79
2023/05/04 01:22:24;;;;;;;;;;;14.20;99.90;;;;;;4828915;29;20436;-79
2023/05/04 01:24:53;;;;;;;;;;;14.30;99.90;;;;;;4832371;29;19947;-79
2023/05/04 01:27:47;;;;;;;;;;;14.90;99.90;;;;;;4860407;29;20084;-79
2023/05/04 01:30:17;;;;;;;;;;;14.20;99.90;;;;;;4846055;29;20076;-79
2023/05/04 01:32:46;;;;;;;;;;;14.10;99.90;;;;;;4837105;29;20617;-79
2023/05/04 01:35:15;;;;;;;;;;;14.00;99.90;;;;;;4863944;29;19999;-79
2023/05/04 01:37:45;;;;;;;;;;;14.10;99.90;;;;;;4834224;29;19931;-79
2023/05/04 01:40:17;;;;;;;;;;;14.10;99.90;;;;;;4813377;29;19968;-79
2023/05/04 01:42:44;;;;;;;;;;;14.10;99.90;;;;;;4837945;29;19936;-79
2023/05/04 01:45:11;;;;;;;;;;;14.10;99.90;;;;;;4845218;29;19935;-79
2023/05/04 01:47:38;;;;;;;;;;;14.10;99.90;;;;;;4819686;29;19982;-79
2023/05/04 01:50:05;;;;;;;;;;;14.00;99.90;;;;;;4809905;29;19943;-79
2023/05/04 01:52:34;;;;;;;;;;;14.00;99.90;;;;;;4836767;29;19935;-79
2023/05/04 01:55:03;;;;;;;;;;;14.00;99.90;;;;;;4837925;29;19943;-79
2023/05/04 01:57:31;;;;;;;;;;;13.90;99.90;;;;;;4842662;29;20062;-79
2023/05/04 01:59:58;;;;;;;;;;;14.40;99.90;;;;;;4824324;29;20080;-79
2023/05/04 02:02:25;;;;;;;;;;;13.80;99.90;;;;;;4836542;29;20031;-79
2023/05/04 02:04:52;;;;;;;;;;;13.80;99.90;;;;;;4841154;29;19936;-79
2023/05/04 02:07:19;;;;;;;;;;;13.80;99.90;;;;;;4818900;29;20095;-79
2023/05/04 02:09:46;;;;;;;;;;;13.80;99.90;;;;;;4841543;29;19950;-79
2023/05/04 02:12:13;;;;;;;;;;;13.80;99.90;;;;;;4809901;29;19940;-79
2023/05/04 02:14:41;;;;;;;;;;;13.70;99.90;;;;;;4831855;29;20121;-79
2023/05/04 02:17:11;;;;;;;;;;;13.80;99.90;;;;;;4823572;29;19935;-79
2023/05/04 02:19:38;;;;;;;;;;;14.30;99.90;;;;;;4834055;29;19990;-79
2023/05/04 02:22:05;;;;;;;;;;;13.60;99.90;;;;;;4818565;29;20023;-79
2023/05/04 02:24:34;;;;;;;;;;;13.90;99.90;;;;;;4814643;29;19958;-79
2023/05/04 02:27:02;;;;;;;;;;;13.70;99.90;;;;;;4809505;29;19937;-79
2023/05/04 02:29:29;;;;;;;;;;;13.60;99.90;;;;;;4809275;29;19936;-79
2023/05/04 02:31:56;;;;;;;;;;;13.70;99.90;;;;;;4800852;29;22448;-79
2023/05/04 02:34:23;;;;;;;;;;;13.70;99.90;;;;;;4816462;29;20668;-79
2023/05/04 02:36:50;;;;;;;;;;;13.90;99.90;;;;;;4814784;29;19935;-79
2023/05/04 02:39:27;;;;;;;;;;;13.70;99.90;;;;;;4818237;29;19936;-79
2023/05/04 02:41:54;;;;;;;;;;;13.70;99.90;;;;;;4815356;29;19936;-79
2023/05/04 02:44:21;;;;;;;;;;;13.40;99.90;;;;;;4822695;29;19935;-79
2023/05/04 02:46:48;;;;;;;;;;;13.70;99.90;;;;;;4812115;29;19995;-79
2023/05/04 02:49:16;;;;;;;;;;;13.70;99.90;;;;;;4857123;29;19928;-79
2023/05/04 02:51:43;;;;;;;;;;;13.70;99.90;;;;;;4839567;29;22090;-79
2023/05/04 02:54:12;;;;;;;;;;;13.60;99.90;;;;;;4830202;29;19956;-79
2023/05/04 02:56:39;;;;;;;;;;;12.70;99.90;;;;;;4835074;29;20284;-79
2023/05/04 02:59:06;;;;;;;;;;;13.70;99.90;;;;;;4860008;29;20007;-79
2023/05/04 03:01:34;;;;;;;;;;;13.60;99.90;;;;;;4855025;29;19942;-79
2023/05/04 03:04:02;;;;;;;;;;;14.20;99.90;;;;;;4828483;29;19948;-80
2023/05/04 03:06:29;;;;;;;;;;;13.60;99.90;;;;;;4821784;29;19943;-80
2023/05/04 03:08:56;;;;;;;;;;;13.00;99.90;;;;;;4845123;29;20004;-80
2023/05/04 03:11:23;;;;;;;;;;;13.00;99.90;;;;;;4825110;29;19943;-79
2023/05/04 03:13:51;;;;;;;;;;;13.60;99.90;;;;;;4845500;29;19943;-79
2023/05/04 03:16:19;;;;;;;;;;;13.50;99.90;;;;;;4824216;29;22252;-79
2023/05/04 03:18:48;;;;;;;;;;;13.50;99.90;;;;;;4823455;29;19997;-79
2023/05/04 03:21:34;;;;;;;;;;;13.30;99.90;;;;;;4825071;29;19931;-79
2023/05/04 03:24:01;;;;;;;;;;;13.40;99.90;;;;;;4822883;29;19942;-79
2023/05/04 03:26:30;;;;;;;;;;;13.50;99.90;;;;;;4833511;29;19943;-79
2023/05/04 03:28:57;;;;;;;;;;;13.50;99.90;;;;;;4842702;29;21212;-79
2023/05/04 03:31:25;;;;;;;;;;;13.50;99.90;;;;;;4872431;29;19934;-79
2023/05/04 03:33:53;;;;;;;;;;;13.50;99.90;;;;;;4844914;29;20524;-79
2023/05/04 03:36:23;;;;;;;;;;;13.50;99.90;;;;;;4824151;29;19936;-79
2023/05/04 03:38:53;;;;;;;;;;;12.20;99.90;;;;;;4842584;29;20022;-79
2023/05/04 03:41:20;;;;;;;;;;;13.40;99.90;;;;;;4832978;29;20124;-79
2023/05/04 03:43:48;;;;;;;;;;;13.50;99.90;;;;;;4826348;29;20399;-79
2023/05/04 03:46:18;;;;;;;;;;;13.50;99.90;;;;;;4859014;29;22606;-79
2023/05/04 03:48:45;;;;;;;;;;;13.50;99.90;;;;;;4841673;29;19931;-80
2023/05/04 03:51:17;;;;;;;;;;;13.50;99.90;;;;;;4846639;29;20449;-79
2023/05/04 03:53:44;;;;;;;;;;;13.40;99.90;;;;;;4821857;29;19932;-79
2023/05/04 03:56:18;;;;;;;;;;;13.40;99.90;;;;;;4816933;29;19939;-79
2023/05/04 03:58:45;;;;;;;;;;;13.40;99.90;;;;;;4809362;29;19936;-79
2023/05/04 04:01:18;;;;;;;;;;;13.50;99.90;;;;;;4809779;29;19935;-79
2023/05/04 04:03:46;;;;;;;;;;;13.40;99.90;;;;;;4823617;29;20057;-79
2023/05/04 04:06:13;;;;;;;;;;;13.40;99.90;;;;;;4820835;29;20030;-79
2023/05/04 04:08:40;;;;;;;;;;;13.60;99.90;;;;;;4835192;29;19936;-79
2023/05/04 04:11:07;;;;;;;;;;;14.40;99.90;;;;;;4834589;29;22402;-79
2023/05/04 04:13:34;;;;;;;;;;;13.40;99.90;;;;;;4818505;29;20666;-80
2023/05/04 04:16:01;;;;;;;;;;;13.40;99.90;;;;;;4833497;29;19936;-79
2023/05/04 04:18:31;;;;;;;;;;;13.50;99.90;;;;;;4827727;29;19936;-79
2023/05/04 04:20:58;;;;;;;;;;;13.50;99.90;;;;;;4788263;29;19942;-79
2023/05/04 04:23:25;;;;;;;;;;;13.50;99.90;;;;;;4786626;29;20069;-79
2023/05/04 04:25:53;;;;;;;;;;;13.50;99.90;;;;;;4818472;29;20757;-80
2023/05/04 04:28:20;;;;;;;;;;;13.40;99.90;;;;;;4805099;29;20066;-79
2023/05/04 04:30:47;;;;;;;;;;;13.30;99.90;;;;;;4790297;29;19938;-78
2023/05/04 04:33:15;;;;;;;;;;;13.30;99.90;;;;;;4789159;29;20087;-78
2023/05/04 04:35:43;;;;;;;;;;;13.40;99.90;;;;;;4788321;29;22353;-78
2023/05/04 04:38:10;;;;;;;;;;;13.20;99.90;;;;;;4784230;29;19944;-79
2023/05/04 04:40:44;;;;;;;;;;;12.20;99.90;;;;;;4827456;29;19928;-78
2023/05/04 04:43:11;;;;;;;;;;;13.40;99.90;;;;;;4801013;29;19943;-78
2023/05/04 04:45:40;;;;;;;;;;;13.50;99.90;;;;;;4813993;29;20016;-78
2023/05/04 04:48:07;;;;;;;;;;;13.40;99.90;;;;;;4821853;29;19959;-78
2023/05/04 04:50:37;;;;;;;;;;;13.70;99.90;;;;;;4820521;29;19936;-78
2023/05/04 04:53:06;;;;;;;;;;;13.50;99.90;;;;;;4817195;29;20499;-78
2023/05/04 04:55:34;;;;;;;;;;;12.10;99.90;;;;;;4816403;29;20053;-79
2023/05/04 04:58:03;;;;;;;;;;;13.70;99.90;;;;;;4809164;29;20636;-78
2023/05/04 05:00:30;;;;;;;;;;;13.80;99.90;;;;;;4814491;29;20665;-79
2023/05/04 05:02:57;;;;;;;;;;;13.80;99.90;;;;;;4847475;29;22182;-78
2023/05/04 05:05:24;;;;;;;;;;;13.70;99.90;;;;;;4818711;29;20380;-78
2023/05/04 05:07:51;;;;;;;;;;;13.80;99.90;;;;;;4812068;29;19943;-79
2023/05/04 05:10:20;;;;;;;;;;;14.00;99.90;;;;;;4814771;29;22038;-78
2023/05/04 05:12:48;;;;;;;;;;;13.90;99.90;;;;;;4817285;29;19936;-78
2023/05/04 05:15:15;;;;;;;;;;;13.90;99.90;;;;;;4805074;29;19932;-78
2023/05/04 05:17:42;;;;;;;;;;;15.00;99.90;;;;;;4837963;29;20082;-77
2023/05/04 05:20:10;;;;;;;;;;;14.00;99.90;;;;;;4833545;29;19975;-77
2023/05/04 05:22:37;;;;;;;;;;;14.00;99.90;;;;;;4817760;29;19975;-79
2023/05/04 05:25:08;;;;;;;;;;;13.90;99.90;;;;;;4822154;29;19974;-78
2023/05/04 05:27:35;;;;;;;;;;;13.80;99.90;;;;;;4820964;29;22460;-78
2023/05/04 05:30:04;;;;;;;;;;;14.00;99.90;;;;;;4827407;29;19978;-78
2023/05/04 05:32:32;;;;;;;;;;;13.90;99.90;;;;;;4821533;29;20078;-78
2023/05/04 05:35:05;;;;;;;;;;;14.20;99.90;;;;;;4828587;29;20372;-78
2023/05/04 05:37:32;;;;;;;;;;;14.30;99.90;;;;;;4821913;29;19936;-79
2023/05/04 05:39:59;;;;;;;;;;;14.40;99.90;;;;;;4806206;29;20726;-78
2023/05/04 05:42:28;;;;;;;;;;;14.40;99.90;;;;;;4831575;29;19936;-78
2023/05/04 05:44:55;;;;;;;;;;;14.30;98.70;;;;;;4832151;29;19936;-79
2023/05/04 05:47:22;;;;;;;;;;;14.40;99.20;;;;;;4867087;29;19955;-78
2023/05/04 05:49:49;;;;;;;;;;;14.30;98.20;;;;;;4860630;29;19928;-78
2023/05/04 05:52:19;;;;;;;;;;;14.40;98.70;;;;;;4866730;29;20426;-80
2023/05/04 05:54:47;;;;;;;;;;;14.30;97.20;;;;;;4843119;29;19935;-79
2023/05/04 05:57:14;;;;;;;;;;;14.70;96.50;;;;;;4816652;29;20423;-78
2023/05/04 05:59:43;;;;;;;;;;;14.80;94.90;;;;;;4839320;29;19983;-78
2023/05/04 06:02:13;;;;;;;;;;;15.20;94.70;;;;;;4818786;29;22418;-79
2023/05/04 06:04:41;;;;;;;;;;;15.30;94.10;;;;;;4795254;29;19936;-79
2023/05/04 06:07:12;;;;;;;;;;;15.60;93.90;;;;;;4786587;29;19936;-78
2023/05/04 06:09:39;;;;;;;;;;;15.70;93.10;;;;;;4827964;29;19936;-78
2023/05/04 06:12:11;;;;;;;;;;;15.80;93.20;;;;;;4834596;29;19935;-78
2023/05/04 06:14:38;;;;;;;;;;;16.00;92.70;;;;;;4807332;29;19975;-78
2023/05/04 06:17:05;;;;;;;;;;;16.10;92.10;;;;;;4812529;29;19936;-78
2023/05/04 06:19:36;;;;;;;;;;;15.80;91.40;;;;;;4823515;29;20625;-78
2023/05/04 06:22:04;;;;;;;;;;;16.40;91.70;;;;;;4821865;29;19942;-78
2023/05/04 06:24:31;;;;;;;;;;;16.30;91.20;;;;;;4826963;29;20065;-79
2023/05/04 06:27:02;;;;;;;;;;;16.30;90.80;;;;;;4831799;29;19943;-79
2023/05/04 06:29:32;;;;;;;;;;;16.20;91.10;;;;;;4821373;29;19944;-78
2023/05/04 06:32:01;;;;;;;;;;;16.50;91.30;;;;;;4827066;29;19936;-79
2023/05/04 06:34:28;;;;;;;;;;;16.50;90.50;;;;;;4823637;29;19936;-78
2023/05/04 06:36:59;;;;;;;;;;;16.20;90.60;;;;;;4826888;29;20776;-79
2023/05/04 06:39:26;;;;;;;;;;;16.40;91.00;;;;;;4833079;29;19942;-78
2023/05/04 06:41:54;;;;;;;;;;;16.40;90.60;;;;;;4826668;29;22242;-78
2023/05/04 06:44:21;;;;;;;;;;;16.50;90.60;;;;;;4835547;29;20060;-78
2023/05/04 06:46:48;;;;;;;;;;;17.50;90.30;;;;;;4834674;29;20348;-78
2023/05/04 06:49:16;;;;;;;;;;;16.80;90.20;;;;;;4830776;29;19936;-78
2023/05/04 06:51:44;;;;;;;;;;;16.90;90.20;;;;;;4827543;29;19935;-79
2023/05/04 06:54:12;;;;;;;;;;;17.00;88.60;;;;;;4844462;29;19985;-79
2023/05/04 06:56:39;;;;;;;;;;;17.10;89.40;;;;;;4829624;29;20370;-79
2023/05/04 06:59:07;;;;;;;;;;;16.80;90.00;;;;;;4829295;29;19942;-78
2023/05/04 07:01:34;;;;;;;;;;;17.40;89.90;;;;;;4834348;29;20062;-78
2023/05/04 07:04:01;;;;;;;;;;;17.20;89.20;;;;;;4820865;29;20034;-78
2023/05/04 07:06:31;;;;;;;;;;;17.30;88.50;;;;;;4862843;29;19935;-78
2023/05/04 07:08:58;;;;;;;;;;;17.40;89.60;;;;;;4818385;29;19936;-79
2023/05/04 07:11:26;;;;;;;;;;;17.70;88.00;;;;;;4832709;29;19936;-78
2023/05/04 07:13:54;;;;;;;;;;;17.60;86.70;;;;;;4828679;29;19935;-78
2023/05/04 07:16:21;;;;;;;;;;;17.50;86.10;;;;;;4833736;29;19943;-79
2023/05/04 07:18:49;;;;;;;;;;;17.40;86.80;;;;;;4816887;29;19936;-80
2023/05/04 07:21:25;;;;;;;;;;;17.60;87.00;;;;;;4808228;29;20491;-78
2023/05/04 07:23:55;;;;;;;;;;;17.70;85.40;;;;;;4822440;29;20422;-78
2023/05/04 07:26:22;;;;;;;;;;;17.70;85.60;;;;;;4802561;29;19936;-78
2023/05/04 07:28:49;;;;;;;;;;;17.90;87.70;;;;;;4849946;29;20391;-78
2023/05/04 07:31:16;;;;;;;;;;;18.10;85.60;;;;;;4838967;29;20410;-78
2023/05/04 07:33:46;;;;;;;;;;;17.80;83.50;;;;;;4831591;29;19928;-78
2023/05/04 07:36:13;;;;;;;;;;;17.60;84.80;;;;;;4833635;29;22450;-78
2023/05/04 07:38:40;;;;;;;;;;;17.90;86.10;;;;;;4819347;29;19934;-78
2023/05/04 07:41:07;;;;;;;;;;;18.20;84.80;;;;;;4827901;29;19966;-80
2023/05/04 07:43:34;;;;;;;;;;;18.60;86.40;;;;;;4836904;29;19935;-79
2023/05/04 07:46:02;;;;;;;;;;;18.60;83.40;;;;;;4850342;29;19935;-79
2023/05/04 07:48:29;;;;;;;;;;;18.30;82.90;;;;;;4836747;29;19943;-80
2023/05/04 07:50:56;;;;;;;;;;;18.40;83.00;;;;;;4834028;29;20564;-78
2023/05/04 07:53:25;;;;;;;;;;;18.60;83.90;;;;;;4823278;29;20412;-78
2023/05/04 07:55:53;;;;;;;;;;;18.70;83.20;;;;;;4802047;29;20327;-78
2023/05/04 07:58:20;;;;;;;;;;;18.80;84.50;;;;;;4810695;29;19936;-78
2023/05/04 08:00:47;;;;;;;;;;;18.70;81.70;;;;;;4808716;29;19927;-78
2023/05/04 08:03:14;;;;;;;;;;;18.70;83.70;;;;;;4829128;29;19966;-80
2023/05/04 08:05:41;;;;;;;;;;;18.90;82.30;;;;;;4833281;29;20613;-78
2023/05/04 08:08:08;;;;;;;;;;;19.00;82.00;;;;;;4818885;29;19939;-78
2023/05/04 08:10:37;;;;;;;;;;;19.10;82.40;;;;;;4807298;29;22010;-78
2023/05/04 08:13:04;;;;;;;;;;;19.20;81.00;;;;;;4829610;29;19936;-77
2023/05/04 08:15:32;;;;;;;;;;;19.50;81.30;;;;;;4812182;29;22237;-78
2023/05/04 08:17:59;;;;;;;;;;;19.40;82.20;;;;;;4831931;29;20023;-78
2023/05/04 08:20:26;;;;;;;;;;;18.90;79.60;;;;;;4800379;29;19943;-79
2023/05/04 08:22:55;;;;;;;;;;;18.70;81.10;;;;;;4817216;29;19936;-78
2023/05/04 08:25:22;;;;;;;;;;;18.30;81.70;;;;;;4832299;29;19943;-78
2023/05/04 08:27:49;;;;;;;;;;;18.40;82.10;;;;;;4813549;29;20138;-79
2023/05/04 08:30:20;;;;;;;;;;;18.40;81.70;;;;;;4838145;29;19936;-78
2023/05/04 08:32:49;;;;;;;;;;;18.40;83.40;;;;;;4810917;29;20499;-78
2023/05/04 08:35:17;;;;;;;;;;;18.50;82.90;;;;;;4847487;29;20077;-78
2023/05/04 08:37:46;;;;;;;;;;;18.80;82.90;;;;;;4824589;29;20426;-78
2023/05/04 08:40:14;;;;;;;;;;;18.40;82.30;;;;;;4830038;29;20025;-78
2023/05/04 08:42:43;;;;;;;;;;;18.60;83.60;;;;;;4822678;29;19936;-78
2023/05/04 08:45:10;;;;;;;;;;;18.80;83.20;;;;;;4825257;29;19971;-78
2023/05/04 08:47:37;;;;;;;;;;;18.70;81.20;;;;;;4817196;29;22499;-80
2023/05/04 08:50:06;;;;;;;;;;;18.60;80.80;;;;;;4835806;29;19936;-78
2023/05/04 08:52:34;;;;;;;;;;;18.70;82.10;;;;;;4826733;29;19943;-78
2023/05/04 08:55:01;;;;;;;;;;;18.80;82.70;;;;;;4819228;29;19935;-79
2023/05/04 08:57:28;;;;;;;;;;;18.90;82.90;;;;;;4814957;29;19982;-79
2023/05/04 08:59:57;;;;;;;;;;;18.70;80.70;;;;;;4802367;29;20091;-79
2023/05/04 09:02:25;;;;;;;;;;;18.40;81.40;;;;;;4822775;29;20351;-78
2023/05/04 09:04:52;;;;;;;;;;;18.70;82.70;;;;;;4820261;29;20035;-79
2023/05/04 09:07:22;;;;;;;;;;;18.70;81.80;;;;;;4829145;29;19935;-79
2023/05/04 09:09:50;;;;;;;;;;;18.70;81.70;;;;;;4827005;29;19936;-79
2023/05/04 09:12:19;;;;;;;;;;;18.60;82.50;;;;;;4835876;29;19940;-78
2023/05/04 09:14:46;;;;;;;;;;;19.10;82.00;;;;;;4819584;29;20090;-79
2023/05/04 09:17:24;;;;;;;;;;;19.20;80.80;;;;;;4861998;29;19988;-78
2023/05/04 09:19:58;;;;;;;;;;;19.60;81.70;;;;;;4806634;29;19936;-80
2023/05/04 09:22:32;;;;;;;;;;;19.50;79.70;;;;;;4820162;29;19943;-79
2023/05/04 09:25:25;;;;;;;;;;;19.50;80.40;;;;;;4835053;29;22289;-79
2023/05/04 09:27:55;;;;;;;;;;;19.50;80.10;;;;;;4821802;29;20055;-78
2023/05/04 09:30:22;;;;;;;;;;;19.70;81.40;;;;;;4817962;29;20560;-78
2023/05/04 09:32:49;;;;;;;;;;;19.60;79.60;;;;;;4831683;29;20647;-79
2023/05/04 09:35:30;;;;;;;;;;;19.40;79.20;;;;;;4833861;29;20388;-79
2023/05/04 09:38:00;;;;;;;;;;;19.30;79.00;;;;;;4816564;29;20078;-79
2023/05/04 09:40:31;;;;;;;;;;;19.00;79.70;;;;;;4832935;29;19943;-77
2023/05/04 09:42:59;;;;;;;;;;;19.30;82.30;;;;;;4830079;29;19942;-78
2023/05/04 09:45:37;;;;;;;;;;;19.50;81.10;;;;;;4838079;29;20030;-78
2023/05/04 09:48:15;;;;;;;;;;;19.50;80.20;;;;;;4832215;29;19994;-80
2023/05/04 09:50:48;;;;;;;;;;;19.60;78.80;;;;;;4853989;29;19935;-79
2023/05/04 09:53:15;;;;;;;;;;;19.80;78.50;;;;;;4831825;29;19935;-79
2023/05/04 09:55:44;;;;;;;;;;;19.80;77.80;;;;;;4815195;29;20038;-79
2023/05/04 09:58:14;;;;;;;;;;;19.60;78.20;;;;;;4845301;29;20411;-78
2023/05/04 10:00:45;;;;;;;;;;;19.80;79.80;;;;;;4837564;29;19974;-78
2023/05/04 10:03:14;;;;;;;;;;;19.80;81.60;;;;;;4859459;29;20339;-79
2023/05/04 10:05:47;;;;;;;;;;;19.90;79.20;;;;;;4831277;29;20547;-79
2023/05/04 10:08:16;;;;;;;;;;;19.70;78.90;;;;;;4814634;29;20031;-79
2023/05/04 10:10:43;;;;;;;;;;;19.60;78.60;;;;;;4839670;29;19935;-79
2023/05/04 10:13:10;;;;;;;;;;;19.50;78.90;;;;;;4836805;29;19936;-79
2023/05/04 10:15:41;;;;;;;;;;;19.50;78.20;;;;;;4836268;29;20363;-79
2023/05/04 10:18:11;;;;;;;;;;;19.80;78.10;;;;;;4824226;29;19935;-79
2023/05/04 10:20:44;;;;;;;;;;;19.90;76.40;;;;;;4837365;29;22213;-79
2023/05/04 10:23:21;;;;;;;;;;;20.10;77.30;;;;;;4853023;29;20474;-79
2023/05/04 10:25:49;;;;;;;;;;;20.60;77.20;;;;;;4834671;29;19936;-80
2023/05/04 10:28:22;;;;;;;;;;;20.50;75.30;;;;;;4840914;29;19934;-79
2023/05/04 10:30:57;;;;;;;;;;;20.30;75.20;;;;;;4828424;29;19971;-79
2023/05/04 10:33:44;;;;;;;;;;;20.10;74.10;;;;;;4798916;29;19943;-78
2023/05/04 10:36:11;;;;;;;;;;;20.20;74.60;;;;;;4811945;29;19943;-78
2023/05/04 10:38:38;;;;;;;;;;;20.40;75.00;;;;;;4797595;29;19932;-78
2023/05/04 10:41:15;;;;;;;;;;;20.60;74.20;;;;;;4821678;29;20034;-77
2023/05/04 10:43:47;;;;;;;;;;;21.10;75.60;;;;;;4797182;29;20012;-79
2023/05/04 10:46:15;;;;;;;;;;;20.90;73.60;;;;;;4807744;29;19936;-79
2023/05/04 10:48:42;;;;;;;;;;;20.80;74.00;;;;;;4799558;29;19936;-80
2023/05/04 10:51:25;;;;;;;;;;;20.80;74.80;;;;;;4794879;29;19936;-80
2023/05/04 10:54:04;;;;;;;;;;;21.20;73.70;;;;;;4816756;29;20024;-78
2023/05/04 10:56:31;;;;;;;;;;;21.40;75.90;;;;;;4791597;29;19936;-78
2023/05/04 10:59:07;;;;;;;;;;;21.40;75.20;;;;;;4813517;29;19936;-80
2023/05/04 11:01:40;;;;;;;;;;;20.90;72.60;;;;;;4803728;29;19936;-78
2023/05/04 11:04:20;;;;;;;;;;;20.70;73.90;;;;;;4822636;29;20751;-78
2023/05/04 11:07:00;;;;;;;;;;;20.60;75.20;;;;;;4832300;29;20427;-79
2023/05/04 11:09:33;;;;;;;;;;;20.40;74.40;;;;;;4829967;29;19936;-78
2023/05/04 11:12:01;;;;;;;;;;;20.20;75.40;;;;;;4811390;29;20306;-78
2023/05/04 11:14:28;;;;;;;;;;;20.20;76.00;;;;;;4831227;29;20022;-78
2023/05/04 11:17:05;;;;;;;;;;;20.20;75.10;;;;;;4832703;29;19935;-79
2023/05/04 11:19:52;;;;;;;;;;;20.00;74.20;;;;;;4835081;29;19942;-80
2023/05/04 11:22:19;;;;;;;;;;;20.20;76.10;;;;;;4836298;29;19936;-79
2023/05/04 11:24:47;;;;;;;;;;;20.30;76.70;;;;;;4833640;29;19936;-79
2023/05/04 11:27:24;;;;;;;;;;;20.30;76.30;;;;;;4828590;29;19936;-78
2023/05/04 11:29:52;;;;;;;;;;;20.30;75.60;;;;;;4837989;29;19936;-78
2023/05/04 11:32:19;;;;;;;;;;;20.20;76.10;;;;;;4846109;29;20637;-78
2023/05/04 11:34:46;;;;;;;;;;;20.20;75.30;;;;;;4835088;29;19942;-78
2023/05/04 11:37:13;;;;;;;;;;;20.20;75.60;;;;;;4835653;29;19958;-78
2023/05/04 11:39:40;;;;;;;;;;;20.10;76.10;;;;;;4819240;29;19935;-78
2023/05/04 11:42:07;;;;;;;;;;;20.10;75.50;;;;;;4842005;29;19935;-79
2023/05/04 11:44:36;;;;;;;;;;;20.00;75.50;;;;;;4846406;29;19944;-79
2023/05/04 11:47:03;;;;;;;;;;;20.00;75.30;;;;;;4825979;29;20013;-79
2023/05/04 11:49:31;;;;;;;;;;;20.00;75.70;;;;;;4827129;29;19966;-79
2023/05/04 11:52:08;;;;;;;;;;;20.00;76.20;;;;;;4831736;29;19936;-79
2023/05/04 11:54:36;;;;;;;;;;;19.90;75.30;;;;;;4831173;29;20033;-79
2023/05/04 11:57:03;;;;;;;;;;;19.90;75.10;;;;;;4824699;29;19937;-78
2023/05/04 11:59:30;;;;;;;;;;;19.90;74.80;;;;;;4840992;29;19935;-78
2023/05/04 12:01:57;;;;;;;;;;;19.90;75.40;;;;;;4846873;29;19935;-78
2023/05/04 12:04:29;;;;;;;;;;;20.00;75.90;;;;;;4824004;29;19980;-78
2023/05/04 12:06:56;;;;;;;;;;;20.00;74.40;;;;;;4812989;29;20632;-78
2023/05/04 12:09:26;;;;;;;;;;;19.80;73.20;;;;;;4821328;29;19979;-79
2023/05/04 12:11:56;;;;;;;;;;;19.70;72.80;;;;;;4806851;29;19996;-78
2023/05/04 12:14:27;;;;;;;;;;;19.90;74.70;;;;;;4821949;29;20022;-79
2023/05/04 12:16:54;;;;;;;;;;;20.00;75.90;;;;;;4812635;29;20004;-78
2023/05/04 12:19:21;;;;;;;;;;;20.10;75.30;;;;;;4809097;29;20038;-78
2023/05/04 12:21:51;;;;;;;;;;;20.10;76.00;;;;;;4814631;29;20035;-79
2023/05/04 12:24:22;;;;;;;;;;;20.20;75.60;;;;;;4805100;29;19936;-79
2023/05/04 12:26:50;;;;;;;;;;;20.10;74.30;;;;;;4801526;29;19943;-78
2023/05/04 12:29:17;;;;;;;;;;;20.10;74.40;;;;;;4806080;29;20026;-78
2023/05/04 12:31:44;;;;;;;;;;;20.20;74.30;;;;;;4803495;29;20086;-79
2023/05/04 12:34:11;;;;;;;;;;;20.60;74.10;;;;;;4805360;29;19975;-78
2023/05/04 12:36:39;;;;;;;;;;;20.20;73.80;;;;;;4819065;29;19942;-78
2023/05/04 12:39:07;;;;;;;;;;;20.30;75.10;;;;;;4825740;29;19936;-78
2023/05/04 12:41:34;;;;;;;;;;;20.40;75.10;;;;;;4820203;29;19961;-78
2023/05/04 12:44:01;;;;;;;;;;;20.30;74.10;;;;;;4815467;29;19935;-78
2023/05/04 12:46:29;;;;;;;;;;;20.40;75.40;;;;;;4826996;29;19942;-78
2023/05/04 12:48:57;;;;;;;;;;;20.40;73.70;;;;;;4825027;29;20498;-78
2023/05/04 12:51:25;;;;;;;;;;;20.40;73.50;;;;;;4812618;29;20292;-79
2023/05/04 12:53:52;;;;;;;;;;;21.30;74.20;;;;;;4828552;29;20399;-78
2023/05/04 12:56:19;;;;;;;;;;;20.40;73.80;;;;;;4826193;29;20010;-78
2023/05/04 12:58:46;;;;;;;;;;;20.40;74.30;;;;;;4823404;29;19935;-78
2023/05/04 13:01:13;;;;;;;;;;;20.30;74.30;;;;;;4840441;29;19935;-78
2023/05/04 13:03:41;;;;;;;;;;;20.50;75.40;;;;;;4813769;29;20038;-78
2023/05/04 13:06:08;;;;;;;;;;;20.70;76.50;;;;;;4828402;29;19936;-78
2023/05/04 13:08:35;;;;;;;;;;;20.80;74.10;;;;;;4855961;29;19959;-78
2023/05/04 13:11:02;;;;;;;;;;;21.00;75.00;;;;;;4840435;29;22385;-78
2023/05/04 13:13:29;;;;;;;;;;;21.60;75.80;;;;;;4821549;29;19936;-79
2023/05/04 13:15:56;;;;;;;;;;;21.40;73.00;;;;;;4824402;29;20090;-77
2023/05/04 13:18:26;;;;;;;;;;;21.60;72.80;;;;;;4834011;29;19978;-78
2023/05/04 13:20:56;;;;;;;;;;;22.00;72.70;;;;;;4809994;29;21955;-77
2023/05/04 13:23:23;;;;;;;;;;;22.10;70.90;;;;;;4838334;29;19936;-78
2023/05/04 13:25:51;;;;;;;;;;;22.20;70.40;;;;;;4835204;29;20755;-78
2023/05/04 13:28:18;;;;;;;;;;;22.30;70.20;;;;;;4827509;29;19931;-77
2023/05/04 13:30:45;;;;;;;;;;;22.30;70.00;;;;;;4842450;29;19934;-78
2023/05/04 13:33:12;;;;;;;;;;;22.30;69.10;;;;;;4837514;29;20518;-77
2023/05/04 13:35:56;;;;;;;;;;;22.30;68.70;;;;;;4850411;29;19928;-79
2023/05/04 13:38:24;;;;;;;;;;;22.00;68.40;;;;;;4810713;29;19936;-78
2023/05/04 13:40:51;;;;;;;;;;;21.90;70.60;;;;;;4825556;29;20440;-78
2023/05/04 13:43:18;;;;;;;;;;;21.80;71.10;;;;;;4839705;29;19938;-78
2023/05/04 13:45:45;;;;;;;;;;;21.40;70.90;;;;;;4841575;29;19935;-79
2023/05/04 13:48:12;;;;;;;;;;;21.70;71.50;;;;;;4839582;29;19936;-77
2023/05/04 13:50:39;;;;;;;;;;;21.90;69.70;;;;;;4824081;29;19936;-79
2023/05/04 13:53:06;;;;;;;;;;;22.20;70.30;;;;;;4831913;29;19943;-78
2023/05/04 13:55:33;;;;;;;;;;;22.20;70.50;;;;;;4842192;29;20039;-78
2023/05/04 13:58:00;;;;;;;;;;;22.40;73.30;;;;;;4816068;29;19936;-78
2023/05/04 14:00:27;;;;;;;;;;;22.30;73.00;;;;;;4812560;29;19935;-77
2023/05/04 14:02:54;;;;;;;;;;;22.40;71.60;;;;;;4838226;29;19935;-78
2023/05/04 14:05:21;;;;;;;;;;;22.10;72.60;;;;;;4825249;29;19935;-78
2023/05/04 14:07:48;;;;;;;;;;;21.90;73.90;;;;;;4842991;29;19936;-78
2023/05/04 14:10:15;;;;;;;;;;;21.90;74.10;;;;;;4833487;29;20398;-78
2023/05/04 14:12:42;;;;;;;;;;;21.90;74.70;;;;;;4844090;29;20034;-77
2023/05/04 14:15:09;;;;;;;;;;;21.90;74.90;;;;;;4842013;29;20106;-79
2023/05/04 14:17:38;;;;;;;;;;;22.00;76.10;;;;;;4844079;29;19940;-78
2023/05/04 14:20:05;;;;;;;;;;;22.00;75.20;;;;;;4840523;29;22222;-78
2023/05/04 14:22:32;;;;;;;;;;;21.80;75.90;;;;;;4826635;29;19935;-78
2023/05/04 14:25:04;;;;;;;;;;;21.90;75.30;;;;;;4826014;29;20799;-78